createdAt,value
2022-10-04T00:01:48.632Z,6.30
2022-10-04T00:04:19.760Z,4.57
2022-10-04T00:06:54.877Z,5.23
2022-10-04T00:09:25.893Z,8.60
2022-10-04T00:11:55.818Z,6.03
2022-10-04T00:14:27.433Z,5.60
2022-10-04T00:16:56.147Z,6.23
2022-10-04T00:19:39.715Z,6.07
2022-10-04T00:22:14.875Z,5.73
2022-10-04T00:25:19.650Z,6.13
2022-10-04T00:28:25.449Z,6.80
2022-10-04T00:31:23.043Z,7.47
2022-10-04T00:33:56.513Z,9.67
2022-10-04T00:36:32.571Z,7.20
2022-10-04T00:39:25.323Z,5.57
2022-10-04T00:42:04.384Z,6.53
2022-10-04T00:44:37.781Z,8.00
2022-10-04T00:47:20.124Z,5.57
2022-10-04T00:49:50.128Z,9.93
2022-10-04T00:52:22.131Z,8.40
2022-10-04T00:54:54.012Z,7.67
2022-10-04T00:57:24.746Z,7.60
2022-10-04T00:59:54.166Z,9.77
2022-10-04T01:02:24.361Z,7.17
2022-10-04T01:04:55.184Z,6.57
2022-10-04T01:07:28.803Z,6.53
2022-10-04T01:10:01.147Z,8.80
2022-10-04T01:12:43.665Z,6.63
2022-10-04T01:15:16.842Z,6.10
2022-10-04T01:18:10.105Z,6.70
2022-10-04T01:20:41.025Z,7.10
2022-10-04T01:23:12.073Z,4.57
2022-10-04T01:25:45.610Z,6.63
2022-10-04T01:28:14.281Z,5.27
2022-10-04T01:30:43.431Z,7.43
2022-10-04T01:33:13.790Z,8.07
2022-10-04T01:35:42.372Z,4.67
2022-10-04T01:38:12.905Z,5.57
2022-10-04T01:40:46.967Z,8.77
2022-10-04T01:43:19.286Z,8.07
2022-10-04T01:45:49.184Z,10.80
2022-10-04T01:48:21.999Z,7.03
2022-10-04T01:50:57.456Z,9.23
2022-10-04T01:53:28.777Z,11.63
2022-10-04T01:56:03.961Z,11.23
2022-10-04T01:58:34.973Z,8.80
2022-10-04T02:01:08.053Z,15.80
2022-10-04T02:03:38.197Z,30.40
2022-10-04T02:06:09.591Z,24.13
2022-10-04T02:08:45.652Z,42.70
2022-10-04T02:11:20.153Z,47.57
2022-10-04T02:13:50.460Z,47.83
2022-10-04T02:16:19.500Z,21.00
2022-10-04T02:18:48.201Z,39.87
2022-10-04T02:21:17.764Z,18.43
2022-10-04T02:23:48.240Z,13.50
2022-10-04T02:26:16.580Z,37.40
2022-10-04T02:28:44.925Z,31.23
2022-10-04T02:31:30.919Z,33.10
2022-10-04T02:33:59.974Z,26.90
2022-10-04T02:36:29.635Z,52.00
2022-10-04T02:39:02.982Z,32.47
2022-10-04T02:41:33.084Z,50.60
2022-10-04T02:44:05.237Z,35.00
2022-10-04T02:46:35.357Z,26.73
2022-10-04T02:49:07.390Z,11.90
2022-10-04T02:51:39.810Z,49.80
2022-10-04T02:54:18.542Z,23.40
2022-10-04T02:56:46.981Z,17.93
2022-10-04T02:59:17.427Z,13.87
2022-10-04T03:01:52.106Z,30.30
2022-10-04T03:04:23.198Z,30.30
2022-10-04T03:06:51.912Z,54.70
2022-10-04T03:09:27.392Z,60.37
2022-10-04T03:11:58.997Z,112.20
2022-10-04T03:14:29.027Z,75.37
2022-10-04T03:17:00.587Z,160.53
2022-10-04T03:19:30.758Z,111.80
2022-10-04T03:22:01.067Z,90.77
2022-10-04T03:24:32.466Z,24.00
2022-10-04T03:27:02.578Z,107.20
2022-10-04T03:29:33.944Z,108.93
2022-10-04T03:32:04.381Z,122.63
2022-10-04T03:34:36.259Z,109.70
2022-10-04T03:37:07.578Z,92.37
2022-10-04T03:39:39.282Z,134.13
2022-10-04T03:42:12.097Z,102.63
2022-10-04T03:44:41.964Z,106.67
2022-10-04T03:47:12.171Z,89.00
2022-10-04T03:49:41.440Z,58.13
2022-10-04T03:52:16.335Z,15.43
2022-10-04T03:54:46.050Z,42.10
2022-10-04T03:57:14.637Z,42.13
2022-10-04T03:59:43.212Z,42.13
2022-10-04T04:02:17.135Z,70.80
2022-10-04T04:04:52.594Z,41.77
2022-10-04T04:07:25.000Z,53.33
2022-10-04T04:10:03.512Z,45.53
2022-10-04T04:12:38.022Z,34.80
2022-10-04T04:15:08.141Z,33.70
2022-10-04T04:17:40.905Z,25.00
2022-10-04T04:20:19.001Z,34.93
2022-10-04T04:22:56.334Z,32.70
2022-10-04T04:25:26.971Z,27.17
2022-10-04T04:28:02.811Z,33.43
2022-10-04T04:30:32.671Z,91.57
2022-10-04T04:33:21.166Z,17.77
2022-10-04T04:35:49.943Z,6.30
2022-10-04T04:38:21.585Z,18.33
2022-10-04T04:40:55.447Z,15.93
2022-10-04T04:43:27.527Z,10.97
2022-10-04T04:46:22.269Z,24.80
2022-10-04T04:48:48.450Z,29.73
2022-10-04T04:51:20.704Z,20.67
2022-10-04T04:53:49.759Z,34.03
2022-10-04T04:56:23.285Z,8.03
2022-10-04T04:58:53.488Z,16.53
2022-10-04T05:01:25.660Z,12.17
2022-10-04T05:04:04.276Z,6.33
2022-10-04T05:06:34.416Z,8.10
2022-10-04T05:09:03.585Z,11.27
2022-10-04T05:11:36.352Z,8.67
2022-10-04T05:14:07.285Z,6.33
2022-10-04T05:16:39.643Z,4.27
2022-10-04T05:19:13.097Z,5.70
2022-10-04T05:21:44.586Z,7.00
2022-10-04T05:24:15.026Z,9.03
2022-10-04T05:26:45.041Z,7.23
2022-10-04T05:29:17.558Z,6.50
2022-10-04T05:31:49.367Z,5.77
2022-10-04T05:34:23.037Z,8.87
2022-10-04T05:37:06.379Z,3.87
2022-10-04T05:39:39.719Z,6.17
2022-10-04T05:42:13.604Z,9.57
2022-10-04T05:44:48.429Z,4.40
2022-10-04T05:47:17.121Z,3.70
2022-10-04T05:49:47.934Z,4.77
2022-10-04T05:52:18.237Z,4.73
2022-10-04T05:54:46.614Z,4.97
2022-10-04T05:57:39.240Z,7.43
2022-10-04T06:00:14.500Z,6.83
2022-10-04T06:02:57.861Z,8.13
2022-10-04T06:05:29.913Z,14.20
2022-10-04T06:08:00.121Z,6.90
2022-10-04T06:10:52.158Z,5.57
2022-10-04T06:13:33.775Z,6.03
2022-10-04T06:16:14.854Z,4.60
2022-10-04T06:19:03.769Z,5.30
2022-10-04T06:21:36.992Z,7.20
2022-10-04T06:24:10.180Z,5.57
2022-10-04T06:26:43.802Z,5.10
2022-10-04T06:29:16.805Z,4.67
2022-10-04T06:32:03.227Z,4.90
2022-10-04T06:34:51.848Z,5.60
2022-10-04T06:37:33.687Z,4.73
2022-10-04T06:40:17.565Z,4.40
2022-10-04T06:42:58.318Z,4.00
2022-10-04T06:45:40.511Z,4.67
2022-10-04T06:48:37.594Z,4.40
2022-10-04T06:51:14.549Z,6.97
2022-10-04T06:53:53.200Z,4.83
2022-10-04T06:56:36.443Z,6.07
2022-10-04T06:59:41.478Z,7.20
2022-10-04T07:02:15.492Z,6.63
2022-10-04T07:05:07.530Z,5.43
2022-10-04T07:07:38.597Z,6.17
2022-10-04T07:10:27.535Z,6.00
2022-10-04T07:13:06.704Z,6.87
2022-10-04T07:15:44.578Z,7.60
2022-10-04T07:18:20.253Z,5.43
2022-10-04T07:20:51.048Z,9.00
2022-10-04T07:23:28.362Z,7.33
2022-10-04T07:25:59.173Z,9.40
2022-10-04T07:28:48.938Z,10.63
2022-10-04T07:31:24.470Z,6.87
2022-10-04T07:33:56.229Z,5.80
2022-10-04T07:36:27.142Z,7.43
2022-10-04T07:39:00.153Z,8.03
2022-10-04T07:41:33.846Z,8.40
2022-10-04T07:44:05.951Z,10.73
2022-10-04T07:46:49.387Z,13.17
2022-10-04T07:49:21.496Z,9.20
2022-10-04T07:52:04.426Z,14.50
2022-10-04T07:54:38.160Z,12.80
2022-10-04T07:57:13.090Z,13.67
2022-10-04T07:59:49.551Z,11.17
2022-10-04T08:02:30.838Z,14.80
2022-10-04T08:05:08.229Z,14.93
2022-10-04T08:07:52.013Z,15.50
2022-10-04T08:10:26.108Z,20.43
2022-10-04T08:12:58.995Z,32.30
2022-10-04T08:15:36.653Z,24.03
2022-10-04T08:18:11.970Z,33.33
2022-10-04T08:20:48.362Z,30.03
2022-10-04T08:23:31.181Z,27.77
2022-10-04T08:26:08.499Z,22.63
2022-10-04T08:29:01.706Z,21.57
2022-10-04T08:31:39.300Z,21.33
2022-10-04T08:34:21.289Z,18.47
2022-10-04T08:37:00.043Z,17.60
2022-10-04T08:39:42.664Z,20.00
2022-10-04T08:42:43.060Z,18.90
2022-10-04T08:45:57.194Z,19.67
2022-10-04T08:48:51.532Z,18.97
2022-10-04T08:52:10.909Z,17.53
2022-10-04T08:55:13.037Z,23.87
2022-10-04T08:58:23.755Z,18.70
2022-10-04T09:01:00.177Z,18.23
2022-10-04T09:04:12.828Z,17.50
2022-10-04T09:06:45.113Z,17.13
2022-10-04T09:09:58.212Z,16.60
2022-10-04T09:12:55.517Z,17.70
2022-10-04T09:15:31.185Z,12.80
2022-10-04T09:18:05.454Z,19.07
2022-10-04T09:20:48.367Z,16.20
2022-10-04T09:23:37.276Z,14.63
2022-10-04T09:26:15.211Z,14.37
2022-10-04T09:29:19.575Z,16.00
2022-10-04T09:32:22.953Z,17.97
2022-10-04T09:35:18.662Z,18.97
2022-10-04T09:38:03.014Z,17.03
2022-10-04T09:40:47.226Z,16.80
2022-10-04T09:43:30.432Z,15.97
2022-10-04T09:46:16.574Z,11.67
2022-10-04T09:48:53.511Z,12.43
2022-10-04T09:51:28.977Z,12.23
2022-10-04T09:54:23.285Z,13.40
2022-10-04T09:57:01.267Z,11.53
2022-10-04T09:59:50.410Z,16.27
2022-10-04T10:02:46.809Z,14.23
2022-10-04T10:05:36.199Z,18.40
2022-10-04T10:08:14.260Z,14.90
2022-10-04T10:11:05.680Z,16.97
2022-10-04T10:13:59.000Z,22.23
2022-10-04T10:16:41.056Z,16.80
2022-10-04T10:19:28.435Z,16.73
2022-10-04T10:22:12.616Z,13.00
2022-10-04T10:25:08.220Z,17.03
2022-10-04T10:28:10.706Z,14.80
2022-10-04T10:30:50.545Z,13.47
2022-10-04T10:34:07.994Z,12.17
2022-10-04T10:36:47.543Z,11.60
2022-10-04T10:39:43.933Z,12.43
2022-10-04T10:42:27.690Z,14.83
2022-10-04T10:45:14.661Z,12.53
2022-10-04T10:47:51.851Z,10.77
2022-10-04T10:50:31.824Z,13.67
2022-10-04T10:53:49.515Z,8.30
2022-10-04T10:56:58.175Z,9.77
2022-10-04T10:59:53.977Z,7.17
2022-10-04T11:02:52.898Z,6.10
2022-10-04T11:06:03.038Z,9.97
2022-10-04T11:08:59.527Z,5.47
2022-10-04T11:12:04.150Z,5.77
2022-10-04T11:14:51.339Z,4.60
2022-10-04T11:17:37.112Z,4.03
2022-10-04T11:20:32.699Z,6.23
2022-10-04T11:23:44.531Z,7.67
2022-10-04T11:26:47.955Z,5.03
2022-10-04T11:29:28.021Z,4.73
2022-10-04T11:32:18.522Z,5.70
2022-10-04T11:35:25.935Z,4.77
2022-10-04T11:38:04.847Z,3.33
2022-10-04T11:40:44.515Z,3.60
2022-10-04T11:43:27.522Z,3.67
2022-10-04T11:46:10.650Z,3.93
2022-10-04T11:48:48.843Z,6.00
2022-10-04T11:51:47.729Z,3.63
2022-10-04T11:55:03.658Z,2.97
2022-10-04T11:57:36.449Z,3.57
2022-10-04T12:00:14.165Z,8.73
2022-10-04T12:03:16.089Z,2.63
2022-10-04T12:06:19.623Z,2.20
2022-10-04T12:08:55.790Z,4.67
2022-10-04T12:11:59.984Z,2.63
2022-10-04T12:14:40.284Z,4.93
2022-10-04T12:17:43.792Z,5.10
2022-10-04T12:20:28.686Z,5.57
2022-10-04T12:23:30.899Z,4.70
2022-10-04T12:26:10.513Z,4.47
2022-10-04T12:28:48.917Z,5.30
2022-10-04T12:31:23.819Z,4.57
2022-10-04T12:33:59.130Z,4.70
2022-10-04T12:36:35.547Z,7.90
2022-10-04T12:39:22.086Z,5.17
2022-10-04T12:41:56.713Z,4.03
2022-10-04T12:44:41.546Z,3.37
2022-10-04T12:47:39.600Z,3.57
2022-10-04T12:50:14.914Z,4.20
2022-10-04T12:52:48.469Z,2.97
2022-10-04T12:55:26.295Z,3.63
2022-10-04T12:58:01.534Z,2.33
2022-10-04T13:00:33.703Z,2.00
2022-10-04T13:03:26.555Z,3.13
2022-10-04T13:06:02.953Z,3.77
2022-10-04T13:08:42.560Z,4.83
2022-10-04T13:11:35.573Z,8.07
2022-10-04T13:14:23.837Z,3.00
2022-10-04T13:19:54.078Z,2.50
2022-10-04T13:22:55.479Z,3.70
2022-10-04T13:25:31.456Z,7.27
2022-10-04T13:28:05.258Z,4.40
2022-10-04T13:30:38.560Z,2.80
2022-10-04T13:33:15.345Z,3.83
2022-10-04T13:35:48.785Z,3.67
2022-10-04T13:38:42.394Z,2.80
2022-10-04T13:41:21.021Z,7.97
2022-10-04T13:44:24.085Z,4.80
2022-10-04T13:47:08.352Z,3.10
2022-10-04T13:49:43.912Z,2.43
2022-10-04T13:52:39.125Z,16.77
2022-10-04T13:55:44.314Z,4.17
2022-10-04T13:58:24.064Z,5.13
2022-10-04T14:01:15.331Z,3.07
2022-10-04T14:03:51.182Z,4.23
2022-10-04T14:06:49.463Z,2.87
2022-10-04T14:09:40.053Z,2.77
2022-10-04T14:12:26.056Z,2.43
2022-10-04T14:15:30.900Z,2.63
2022-10-04T14:18:30.227Z,3.87
2022-10-04T14:21:40.523Z,1.53
2022-10-04T14:24:41.370Z,2.33
2022-10-04T14:27:37.308Z,2.30
2022-10-04T14:30:17.334Z,2.03
2022-10-04T14:33:05.350Z,3.73
2022-10-04T14:35:36.478Z,8.23
2022-10-04T14:38:45.536Z,3.73
2022-10-04T14:41:50.673Z,3.40
2022-10-04T14:44:45.197Z,3.40
2022-10-04T14:47:28.780Z,4.47
2022-10-04T14:50:09.402Z,2.17
2022-10-04T14:52:46.175Z,2.87
2022-10-04T14:55:31.135Z,3.83
2022-10-04T14:58:07.307Z,3.63
2022-10-04T15:00:55.730Z,3.23
2022-10-04T15:03:32.907Z,2.10
2022-10-04T15:06:13.051Z,4.27
2022-10-04T15:09:06.461Z,4.23
2022-10-04T15:11:42.047Z,4.27
2022-10-04T15:14:39.161Z,1.57
2022-10-04T15:17:12.892Z,3.80
2022-10-04T15:20:01.432Z,3.47
2022-10-04T15:22:38.723Z,4.20
2022-10-04T15:25:39.279Z,10.43
2022-10-04T15:28:33.922Z,5.37
2022-10-04T15:31:07.492Z,4.57
2022-10-04T15:33:41.048Z,1.80
2022-10-04T15:36:26.071Z,2.37
2022-10-04T15:39:02.445Z,6.73
2022-10-04T15:41:38.278Z,2.67
2022-10-04T15:44:28.994Z,3.93
2022-10-04T15:47:10.076Z,4.47
2022-10-04T15:49:54.218Z,2.53
2022-10-04T15:52:52.929Z,3.80
2022-10-04T15:55:24.985Z,7.73
2022-10-04T15:58:11.348Z,3.97
2022-10-04T16:00:49.784Z,2.03
2022-10-04T16:03:27.812Z,5.20
2022-10-04T16:06:00.759Z,4.00
2022-10-04T16:08:49.554Z,8.70
2022-10-04T16:11:41.094Z,4.77
2022-10-04T16:14:44.233Z,10.17
2022-10-04T16:17:29.776Z,11.10
2022-10-04T16:20:17.953Z,10.47
2022-10-04T16:23:19.357Z,12.07
2022-10-04T16:25:48.882Z,8.43
2022-10-04T16:28:24.203Z,10.87
2022-10-04T16:31:20.405Z,6.47
2022-10-04T16:33:56.301Z,9.33
2022-10-04T16:36:27.250Z,7.57
2022-10-04T16:39:15.516Z,9.50
2022-10-04T16:41:47.221Z,4.07
2022-10-04T16:44:32.408Z,6.77
2022-10-04T16:47:05.039Z,4.43
2022-10-04T16:49:41.216Z,9.63
2022-10-04T16:52:38.452Z,6.00
2022-10-04T16:55:34.380Z,11.50
2022-10-04T16:58:52.516Z,9.90
2022-10-04T17:02:00.046Z,7.17
2022-10-04T17:04:55.522Z,6.23
2022-10-04T17:07:31.358Z,4.73
2022-10-04T17:10:04.799Z,5.50
2022-10-04T17:12:37.331Z,7.13
2022-10-04T17:15:24.617Z,8.23
2022-10-04T17:17:58.123Z,4.87
2022-10-04T17:20:35.000Z,7.07
2022-10-04T17:23:17.936Z,12.27
2022-10-04T17:25:53.934Z,7.47
2022-10-04T17:28:30.665Z,8.67
2022-10-04T17:31:04.067Z,5.97
2022-10-04T17:33:40.136Z,9.57
2022-10-04T17:36:30.095Z,11.33
2022-10-04T17:39:07.949Z,10.53
2022-10-04T17:41:55.731Z,9.87
2022-10-04T17:44:34.233Z,10.03
2022-10-04T17:47:10.662Z,6.63
2022-10-04T17:50:08.544Z,11.30
2022-10-04T17:53:05.008Z,10.00
2022-10-04T17:55:44.003Z,10.57
2022-10-04T17:58:15.981Z,7.67
2022-10-04T18:00:53.536Z,8.93
2022-10-04T18:03:24.968Z,8.57
2022-10-04T18:05:56.787Z,7.57
2022-10-04T18:08:40.649Z,11.23
2022-10-04T18:11:18.772Z,10.37
2022-10-04T18:13:50.275Z,8.43
2022-10-04T18:16:23.973Z,10.10
2022-10-04T18:18:52.751Z,8.87
2022-10-04T18:21:26.346Z,7.57
2022-10-04T18:23:58.429Z,9.20
2022-10-04T18:26:29.776Z,10.57
2022-10-04T18:29:02.954Z,8.83
2022-10-04T18:31:36.295Z,11.50
2022-10-04T18:34:18.386Z,13.63
2022-10-04T18:36:53.422Z,9.27
2022-10-04T18:39:24.390Z,10.13
2022-10-04T18:42:01.266Z,14.07
2022-10-04T18:44:31.578Z,9.40
2022-10-04T18:47:02.990Z,12.73
2022-10-04T18:49:33.313Z,11.77
2022-10-04T18:52:09.055Z,11.07
2022-10-04T18:54:45.451Z,10.70
2022-10-04T18:57:24.164Z,8.10
2022-10-04T19:00:19.650Z,7.80
2022-10-04T19:02:54.356Z,9.23
2022-10-04T19:05:28.813Z,14.67
2022-10-04T19:08:03.608Z,16.13
2022-10-04T19:10:35.353Z,18.70
2022-10-04T19:13:13.505Z,12.80
2022-10-04T19:15:44.796Z,15.03
2022-10-04T19:18:28.357Z,14.23
2022-10-04T19:21:01.840Z,13.50
2022-10-04T19:23:37.700Z,20.87
2022-10-04T19:26:31.003Z,20.57
2022-10-04T19:29:07.529Z,21.33
2022-10-04T19:31:42.694Z,16.13
2022-10-04T19:34:16.869Z,17.40
2022-10-04T19:36:49.025Z,19.43
2022-10-04T19:39:38.025Z,21.73
2022-10-04T19:42:12.847Z,20.33
2022-10-04T19:44:49.891Z,16.27
2022-10-04T19:47:28.779Z,15.63
2022-10-04T19:50:01.470Z,15.60
2022-10-04T19:52:40.896Z,16.30
2022-10-04T19:55:19.690Z,14.17
2022-10-04T19:57:52.068Z,14.67
2022-10-04T20:00:22.221Z,13.13
2022-10-04T20:02:51.481Z,18.30
2022-10-04T20:05:24.865Z,15.53
2022-10-04T20:07:57.441Z,18.40
2022-10-04T20:10:34.613Z,13.00
2022-10-04T20:13:23.530Z,12.40
2022-10-04T20:15:54.348Z,8.90
2022-10-04T20:18:59.713Z,7.83
2022-10-04T20:21:32.266Z,8.80
2022-10-04T20:24:01.690Z,8.93
2022-10-04T20:27:06.093Z,10.50
2022-10-04T20:30:12.852Z,13.63
2022-10-04T20:33:01.029Z,13.00
2022-10-04T20:36:08.436Z,13.90
2022-10-04T20:38:59.526Z,18.40
2022-10-04T20:42:04.649Z,13.60
2022-10-04T20:44:50.677Z,12.90
2022-10-04T20:47:25.100Z,13.27
2022-10-04T20:49:56.346Z,13.00
2022-10-04T20:52:29.782Z,14.80
2022-10-04T20:55:01.462Z,13.73
2022-10-04T20:57:30.976Z,15.07
2022-10-04T21:00:00.041Z,11.90
2022-10-04T21:02:30.025Z,13.10
2022-10-04T21:05:13.223Z,14.17
2022-10-04T21:07:41.965Z,10.50
2022-10-04T21:10:17.853Z,14.90
2022-10-04T21:12:46.786Z,12.47
2022-10-04T21:15:23.140Z,13.67
2022-10-04T21:18:04.034Z,12.37
2022-10-04T21:20:46.516Z,13.00
2022-10-04T21:23:18.774Z,10.00
2022-10-04T21:25:47.659Z,13.60
2022-10-04T21:28:46.382Z,10.07
2022-10-04T21:31:14.651Z,11.10
2022-10-04T21:33:44.331Z,9.57
2022-10-04T21:36:12.918Z,12.20
2022-10-04T21:38:41.247Z,10.23
2022-10-04T21:41:09.604Z,7.50
2022-10-04T21:43:37.900Z,13.20
2022-10-04T21:46:06.349Z,12.13
2022-10-04T21:48:34.707Z,12.20
2022-10-04T21:51:04.830Z,10.73
2022-10-04T21:53:33.538Z,10.80
2022-10-04T21:56:03.426Z,12.20
2022-10-04T21:58:32.053Z,12.07
2022-10-04T22:01:00.552Z,10.77
2022-10-04T22:03:28.863Z,9.67
2022-10-04T22:05:57.172Z,10.13
2022-10-04T22:08:26.948Z,15.93
2022-10-04T22:10:57.723Z,11.53
2022-10-04T22:13:27.193Z,11.47
2022-10-04T22:15:55.642Z,10.73
2022-10-04T22:18:24.065Z,9.87
2022-10-04T22:20:52.442Z,9.67
2022-10-04T22:23:22.868Z,8.97
2022-10-04T22:25:53.523Z,11.07
2022-10-04T22:28:23.891Z,10.77
2022-10-04T22:30:53.214Z,8.67
2022-10-04T22:33:29.614Z,8.57
2022-10-04T22:35:59.066Z,8.40
2022-10-04T22:38:27.442Z,10.03
2022-10-04T22:40:57.030Z,8.83
2022-10-04T22:43:25.568Z,11.70
2022-10-04T22:45:55.230Z,10.33
2022-10-04T22:48:26.573Z,8.73
2022-10-04T22:50:54.877Z,9.97
2022-10-04T22:53:23.946Z,8.50
2022-10-04T22:55:55.790Z,9.20
2022-10-04T22:58:25.429Z,10.13
2022-10-04T23:00:56.156Z,10.20
2022-10-04T23:03:28.899Z,8.07
2022-10-04T23:05:58.478Z,9.27
2022-10-04T23:08:26.827Z,10.73
2022-10-04T23:10:56.414Z,9.03
2022-10-04T23:13:27.400Z,9.27
2022-10-04T23:15:57.665Z,10.57
2022-10-04T23:18:27.317Z,7.63
2022-10-04T23:20:57.933Z,10.33
2022-10-04T23:23:28.327Z,6.70
2022-10-04T23:25:56.895Z,8.47
2022-10-04T23:28:26.816Z,7.50
2022-10-04T23:31:02.044Z,7.13
2022-10-04T23:33:30.303Z,6.67
2022-10-04T23:35:58.743Z,7.97
2022-10-04T23:38:27.083Z,9.40
2022-10-04T23:40:55.380Z,6.27
2022-10-04T23:43:26.796Z,8.50
2022-10-04T23:45:56.807Z,5.27
2022-10-04T23:48:27.182Z,7.07
2022-10-04T23:50:57.504Z,7.17
2022-10-04T23:53:28.866Z,5.80
2022-10-04T23:55:58.839Z,6.77
2022-10-04T23:58:33.953Z,6.40
